createdAt,value
2022-10-10T00:01:25.840Z,54.62
2022-10-10T00:03:54.577Z,54.40
2022-10-10T00:06:23.540Z,54.56
2022-10-10T00:08:52.051Z,54.70
2022-10-10T00:11:22.026Z,54.70
2022-10-10T00:13:51.374Z,54.75
2022-10-10T00:16:20.392Z,54.83
2022-10-10T00:18:48.969Z,55.04
2022-10-10T00:21:17.330Z,54.96
2022-10-10T00:23:45.711Z,55.20
2022-10-10T00:26:18.888Z,55.15
2022-10-10T00:28:48.306Z,55.24
2022-10-10T00:31:16.894Z,55.11
2022-10-10T00:33:45.783Z,55.15
2022-10-10T00:36:14.657Z,55.51
2022-10-10T00:38:43.157Z,55.56
2022-10-10T00:41:11.437Z,55.60
2022-10-10T00:43:40.223Z,55.80
2022-10-10T00:46:08.705Z,55.76
2022-10-10T00:48:41.692Z,55.90
2022-10-10T00:51:12.402Z,55.94
2022-10-10T00:53:40.806Z,56.27
2022-10-10T00:56:09.804Z,56.20
2022-10-10T00:58:40.512Z,56.14
2022-10-10T01:01:09.054Z,56.50
2022-10-10T01:03:37.198Z,56.51
2022-10-10T01:06:06.292Z,56.80
2022-10-10T01:08:34.567Z,56.54
2022-10-10T01:11:02.843Z,56.75
2022-10-10T01:13:47.381Z,56.75
2022-10-10T01:16:36.061Z,56.88
2022-10-10T01:19:04.741Z,57.18
2022-10-10T01:21:39.991Z,57.03
2022-10-10T01:24:21.063Z,56.66
2022-10-10T01:26:55.176Z,56.94
2022-10-10T01:29:26.936Z,57.10
2022-10-10T01:31:56.955Z,57.36
2022-10-10T01:34:28.921Z,57.27
2022-10-10T01:36:57.097Z,57.30
2022-10-10T01:39:32.541Z,57.53
2022-10-10T01:42:05.220Z,57.52
2022-10-10T01:44:33.581Z,57.42
2022-10-10T01:47:01.878Z,57.71
2022-10-10T01:49:31.822Z,57.93
2022-10-10T01:52:09.593Z,57.71
2022-10-10T01:54:50.573Z,57.82
2022-10-10T01:57:37.891Z,57.65
2022-10-10T02:00:06.540Z,57.86
2022-10-10T02:02:47.181Z,57.63
2022-10-10T02:05:21.976Z,57.89
2022-10-10T02:07:53.920Z,57.89
2022-10-10T02:10:24.869Z,57.65
2022-10-10T02:12:55.389Z,57.59
2022-10-10T02:15:25.601Z,57.80
2022-10-10T02:17:54.627Z,57.70
2022-10-10T02:20:25.444Z,57.77
2022-10-10T02:22:55.510Z,57.78
2022-10-10T02:25:32.159Z,57.92
2022-10-10T02:28:00.843Z,57.85
2022-10-10T02:30:29.141Z,58.12
2022-10-10T02:33:01.672Z,58.10
2022-10-10T02:35:40.830Z,58.32
2022-10-10T02:38:11.463Z,58.46
2022-10-10T02:40:41.812Z,58.45
2022-10-10T02:43:11.705Z,58.51
2022-10-10T02:45:40.657Z,58.54
2022-10-10T02:48:09.256Z,58.59
2022-10-10T02:50:38.484Z,58.77
2022-10-10T02:53:06.863Z,59.17
2022-10-10T02:55:35.343Z,59.39
2022-10-10T02:58:03.660Z,59.27
2022-10-10T03:00:32.102Z,59.22
2022-10-10T03:03:00.584Z,59.32
2022-10-10T03:05:28.967Z,59.23
2022-10-10T03:07:57.244Z,59.51
2022-10-10T03:10:25.827Z,59.30
2022-10-10T03:12:54.212Z,59.19
2022-10-10T03:15:22.511Z,59.47
2022-10-10T03:17:51.070Z,59.50
2022-10-10T03:20:19.550Z,59.48
2022-10-10T03:22:47.923Z,59.57
2022-10-10T03:25:16.720Z,59.70
2022-10-10T03:27:45.610Z,59.64
2022-10-10T03:30:13.844Z,59.62
2022-10-10T03:32:42.269Z,59.61
2022-10-10T03:35:10.848Z,59.54
2022-10-10T03:37:39.233Z,59.70
2022-10-10T03:40:07.818Z,59.56
2022-10-10T03:42:36.103Z,59.84
2022-10-10T03:45:04.860Z,59.95
2022-10-10T03:47:33.267Z,59.97
2022-10-10T03:50:01.647Z,59.93
2022-10-10T03:52:29.921Z,59.76
2022-10-10T03:54:58.608Z,59.92
2022-10-10T03:57:27.428Z,60.12
2022-10-10T03:59:55.571Z,60.12
2022-10-10T04:02:24.360Z,60.31
2022-10-10T04:04:53.058Z,60.38
2022-10-10T04:07:21.316Z,61.08
2022-10-10T04:09:50.014Z,61.38
2022-10-10T04:12:18.596Z,61.31
2022-10-10T04:14:46.771Z,61.14
2022-10-10T04:17:15.460Z,61.11
2022-10-10T04:19:43.917Z,60.67
2022-10-10T04:22:12.322Z,60.40
2022-10-10T04:24:40.495Z,60.18
2022-10-10T04:27:09.080Z,59.94
2022-10-10T04:29:37.562Z,59.74
2022-10-10T04:32:06.042Z,59.96
2022-10-10T04:34:34.525Z,59.80
2022-10-10T04:37:02.955Z,59.76
2022-10-10T04:39:31.285Z,59.87
2022-10-10T04:41:59.670Z,60.02
2022-10-10T04:44:28.210Z,60.24
2022-10-10T04:46:56.390Z,60.04
2022-10-10T04:49:24.807Z,59.74
2022-10-10T04:51:53.191Z,59.92
2022-10-10T04:54:21.771Z,60.02
2022-10-10T04:56:50.251Z,60.15
2022-10-10T04:59:18.737Z,59.92
2022-10-10T05:01:47.235Z,59.93
2022-10-10T05:04:15.596Z,59.79
2022-10-10T05:06:44.289Z,59.63
2022-10-10T05:09:12.663Z,59.49
2022-10-10T05:11:41.103Z,59.37
2022-10-10T05:14:09.850Z,59.15
2022-10-10T05:16:38.108Z,59.15
2022-10-10T05:19:06.693Z,58.81
2022-10-10T05:21:35.279Z,58.76
2022-10-10T05:24:03.752Z,58.63
2022-10-10T05:26:32.139Z,58.61
2022-10-10T05:29:01.849Z,58.54
2022-10-10T05:31:30.127Z,58.45
2022-10-10T05:33:58.593Z,58.59
2022-10-10T05:36:27.092Z,58.32
2022-10-10T05:38:55.675Z,58.06
2022-10-10T05:41:23.976Z,58.23
2022-10-10T05:43:52.438Z,58.04
2022-10-10T05:46:23.395Z,58.01
2022-10-10T05:48:51.860Z,57.68
2022-10-10T05:51:20.953Z,57.44
2022-10-10T05:53:49.231Z,57.27
2022-10-10T05:56:17.815Z,57.14
2022-10-10T05:58:46.206Z,57.20
2022-10-10T06:01:14.377Z,56.89
2022-10-10T06:03:43.236Z,56.72
2022-10-10T06:06:11.643Z,56.67
2022-10-10T06:08:39.819Z,56.48
2022-10-10T06:11:08.609Z,56.15
2022-10-10T06:13:38.217Z,56.04
2022-10-10T06:16:06.487Z,55.54
2022-10-10T06:18:34.874Z,55.32
2022-10-10T06:21:05.477Z,55.17
2022-10-10T06:23:34.293Z,55.16
2022-10-10T06:26:02.673Z,54.85
2022-10-10T06:28:31.453Z,54.69
2022-10-10T06:31:01.387Z,54.31
2022-10-10T06:33:29.863Z,54.17
2022-10-10T06:35:58.751Z,54.06
2022-10-10T06:38:27.816Z,53.60
2022-10-10T06:41:00.279Z,53.43
2022-10-10T06:43:29.421Z,53.18
2022-10-10T06:45:57.935Z,53.41
2022-10-10T06:48:26.999Z,53.14
2022-10-10T06:50:56.361Z,52.72
2022-10-10T06:53:24.886Z,52.88
2022-10-10T06:55:53.792Z,52.14
2022-10-10T06:58:23.591Z,51.46
2022-10-10T07:00:52.686Z,51.17
2022-10-10T07:03:21.477Z,50.31
2022-10-10T07:05:53.952Z,50.38
2022-10-10T07:08:22.739Z,49.61
2022-10-10T07:10:51.632Z,49.12
2022-10-10T07:13:20.633Z,48.93
2022-10-10T07:15:49.214Z,47.95
2022-10-10T07:18:18.279Z,47.83
2022-10-10T07:20:46.995Z,48.27
2022-10-10T07:23:15.740Z,48.25
2022-10-10T07:25:44.163Z,48.08
2022-10-10T07:28:12.471Z,47.58
2022-10-10T07:30:41.595Z,47.40
2022-10-10T07:33:10.840Z,47.36
2022-10-10T07:35:38.993Z,47.00
2022-10-10T07:38:07.601Z,46.82
2022-10-10T07:40:36.204Z,46.38
2022-10-10T07:43:06.614Z,46.54
2022-10-10T07:45:38.783Z,46.22
2022-10-10T07:48:07.260Z,44.48
2022-10-10T07:50:35.758Z,44.47
2022-10-10T07:53:04.636Z,44.61
2022-10-10T07:55:33.119Z,44.22
2022-10-10T07:58:03.956Z,42.33
2022-10-10T08:00:33.974Z,42.11
2022-10-10T08:03:02.588Z,42.12
2022-10-10T08:05:31.144Z,42.68
2022-10-10T08:07:59.728Z,42.14
2022-10-10T08:10:28.999Z,41.56
2022-10-10T08:12:57.204Z,40.88
2022-10-10T08:15:27.846Z,41.54
2022-10-10T08:17:58.676Z,41.20
2022-10-10T08:20:27.260Z,40.94
2022-10-10T08:22:55.420Z,40.42
2022-10-10T08:25:23.844Z,40.27
2022-10-10T08:27:52.296Z,39.64
2022-10-10T08:30:20.470Z,39.41
2022-10-10T08:32:49.257Z,39.53
2022-10-10T08:35:17.951Z,39.43
2022-10-10T08:37:46.293Z,38.06
2022-10-10T08:40:20.310Z,38.25
2022-10-10T08:42:53.016Z,38.19
2022-10-10T08:45:24.885Z,38.49
2022-10-10T08:47:56.335Z,38.41
2022-10-10T08:50:27.887Z,37.84
2022-10-10T08:52:56.074Z,37.40
2022-10-10T08:55:31.509Z,37.00
2022-10-10T08:58:10.445Z,36.67
2022-10-10T09:00:40.506Z,35.32
2022-10-10T09:03:32.110Z,35.04
2022-10-10T09:06:06.603Z,34.37
2022-10-10T09:08:49.523Z,33.97
2022-10-10T09:11:33.058Z,33.82
2022-10-10T09:14:11.576Z,33.55
2022-10-10T09:16:55.116Z,32.90
2022-10-10T09:19:30.737Z,32.90
2022-10-10T09:22:01.198Z,31.84
2022-10-10T09:24:43.548Z,31.51
2022-10-10T09:27:28.057Z,31.57
2022-10-10T09:30:07.991Z,31.57
2022-10-10T09:32:49.292Z,31.02
2022-10-10T09:35:21.337Z,30.50
2022-10-10T09:37:50.865Z,30.31
2022-10-10T09:40:23.035Z,30.46
2022-10-10T09:42:51.618Z,29.93
2022-10-10T09:45:21.276Z,29.77
2022-10-10T09:47:52.789Z,29.54
2022-10-10T09:50:21.823Z,30.15
2022-10-10T09:52:51.180Z,29.92
2022-10-10T09:55:19.460Z,29.17
2022-10-10T09:57:48.247Z,28.35
2022-10-10T10:00:19.291Z,27.17
2022-10-10T10:02:51.027Z,28.27
2022-10-10T10:05:26.746Z,27.69
2022-10-10T10:07:55.084Z,27.28
2022-10-10T10:10:24.934Z,27.60
2022-10-10T10:12:54.313Z,27.70
2022-10-10T10:15:29.001Z,27.15
2022-10-10T10:18:16.323Z,28.15
2022-10-10T10:20:46.151Z,27.67
2022-10-10T10:23:23.453Z,28.36
2022-10-10T10:25:59.320Z,28.61
2022-10-10T10:28:28.580Z,28.56
2022-10-10T10:30:58.844Z,27.75
2022-10-10T10:33:30.575Z,27.81
2022-10-10T10:36:04.912Z,27.38
2022-10-10T10:38:48.550Z,27.13
2022-10-10T10:41:44.785Z,26.88
2022-10-10T10:44:19.108Z,27.02
2022-10-10T10:47:06.534Z,26.40
2022-10-10T10:49:47.816Z,26.22
2022-10-10T10:52:22.132Z,25.39
2022-10-10T10:55:04.234Z,25.68
2022-10-10T10:58:04.856Z,25.62
2022-10-10T11:01:23.497Z,26.33
2022-10-10T11:05:20.077Z,26.32
2022-10-10T11:06:27.369Z,27.11
2022-10-10T11:09:13.616Z,26.23
2022-10-10T11:12:03.602Z,25.62
2022-10-10T11:14:50.050Z,25.64
2022-10-10T11:17:38.473Z,24.46
2022-10-10T11:20:06.799Z,24.47
2022-10-10T11:22:46.836Z,24.05
2022-10-10T11:25:19.719Z,23.98
2022-10-10T11:28:04.788Z,24.27
2022-10-10T11:30:36.155Z,24.24
2022-10-10T11:33:04.724Z,24.89
2022-10-10T11:35:52.048Z,24.25
2022-10-10T11:38:40.484Z,24.29
2022-10-10T11:41:14.307Z,23.54
2022-10-10T11:43:51.902Z,23.70
2022-10-10T11:46:38.787Z,23.33
2022-10-10T11:49:12.055Z,22.98
2022-10-10T11:52:09.370Z,22.79
2022-10-10T11:54:54.237Z,23.06
2022-10-10T11:57:38.488Z,22.36
2022-10-10T12:00:11.273Z,22.59
2022-10-10T12:02:43.033Z,22.14
2022-10-10T12:05:22.582Z,21.91
2022-10-10T12:07:50.955Z,22.07
2022-10-10T12:10:22.674Z,21.78
2022-10-10T12:12:53.312Z,21.29
2022-10-10T12:15:29.920Z,21.24
2022-10-10T12:17:58.811Z,21.09
2022-10-10T12:20:27.345Z,20.43
2022-10-10T12:23:11.241Z,20.18
2022-10-10T12:25:42.809Z,20.24
2022-10-10T12:28:14.660Z,20.57
2022-10-10T12:30:57.092Z,20.42
2022-10-10T12:33:26.571Z,19.71
2022-10-10T12:35:55.259Z,19.15
2022-10-10T12:38:23.548Z,19.31
2022-10-10T12:40:54.683Z,19.88
2022-10-10T12:43:37.450Z,20.03
2022-10-10T12:46:22.880Z,19.68
2022-10-10T12:48:59.968Z,19.27
2022-10-10T12:51:28.856Z,19.66
2022-10-10T12:53:58.977Z,20.18
2022-10-10T12:56:36.959Z,20.03
2022-10-10T12:59:06.575Z,20.48
2022-10-10T13:01:37.482Z,19.91
2022-10-10T13:04:05.748Z,20.00
2022-10-10T13:06:39.747Z,19.44
2022-10-10T13:09:09.739Z,19.31
2022-10-10T13:11:59.112Z,19.33
2022-10-10T13:14:28.753Z,19.55
2022-10-10T13:16:57.202Z,19.92
2022-10-10T13:19:25.945Z,19.94
2022-10-10T13:21:55.608Z,19.58
2022-10-10T13:24:27.669Z,19.26
2022-10-10T13:26:56.151Z,19.31
2022-10-10T13:29:27.193Z,19.58
2022-10-10T13:31:58.955Z,19.11
2022-10-10T13:34:30.404Z,19.12
2022-10-10T13:37:00.512Z,19.25
2022-10-10T13:39:29.934Z,19.54
2022-10-10T13:41:58.617Z,20.54
2022-10-10T13:44:46.658Z,20.93
2022-10-10T13:47:50.929Z,21.74
2022-10-10T13:50:29.709Z,22.57
2022-10-10T13:53:16.825Z,22.97
2022-10-10T13:55:45.498Z,23.30
2022-10-10T13:58:14.813Z,23.52
2022-10-10T14:00:43.091Z,23.86
2022-10-10T14:03:16.868Z,23.99
2022-10-10T14:05:45.996Z,23.72
2022-10-10T14:08:19.080Z,24.07
2022-10-10T14:10:58.678Z,24.40
2022-10-10T14:13:27.828Z,24.60
2022-10-10T14:16:09.272Z,25.04
2022-10-10T14:18:37.980Z,25.47
2022-10-10T14:21:08.534Z,26.05
2022-10-10T14:23:37.082Z,26.62
2022-10-10T14:26:06.523Z,27.35
2022-10-10T14:28:37.517Z,28.08
2022-10-10T14:31:06.766Z,28.88
2022-10-10T14:33:35.557Z,29.54
2022-10-10T14:36:04.445Z,30.10
2022-10-10T14:38:33.133Z,30.46
2022-10-10T14:41:02.432Z,30.94
2022-10-10T14:43:31.533Z,31.64
2022-10-10T14:45:59.745Z,31.98
2022-10-10T14:48:28.087Z,32.43
2022-10-10T14:50:56.775Z,32.95
2022-10-10T14:53:24.939Z,32.90
2022-10-10T14:55:56.261Z,33.05
2022-10-10T14:58:25.089Z,33.60
2022-10-10T15:00:53.601Z,33.73
2022-10-10T15:03:22.377Z,34.18
2022-10-10T15:05:51.150Z,34.48
2022-10-10T15:08:19.735Z,35.09
2022-10-10T15:10:48.627Z,35.15
2022-10-10T15:13:17.108Z,35.76
2022-10-10T15:15:47.671Z,35.95
2022-10-10T15:18:39.600Z,36.28
2022-10-10T15:21:08.673Z,36.67
2022-10-10T15:23:37.048Z,37.25
2022-10-10T15:26:06.145Z,37.43
2022-10-10T15:28:34.800Z,38.15
2022-10-10T15:31:05.176Z,38.82
2022-10-10T15:33:33.955Z,38.97
2022-10-10T15:36:10.593Z,39.79
2022-10-10T15:38:40.792Z,40.57
2022-10-10T15:41:10.311Z,40.97
2022-10-10T15:43:42.828Z,41.28
2022-10-10T15:46:11.485Z,41.75
2022-10-10T15:48:40.101Z,42.12
2022-10-10T15:51:08.888Z,42.68
2022-10-10T15:53:37.651Z,43.03
2022-10-10T15:56:09.933Z,42.98
2022-10-10T15:58:40.191Z,43.46
2022-10-10T16:01:12.937Z,43.92
2022-10-10T16:03:41.869Z,44.71
2022-10-10T16:06:10.844Z,45.23
2022-10-10T16:08:39.491Z,45.22
2022-10-10T16:11:09.139Z,45.16
2022-10-10T16:13:37.725Z,45.30
2022-10-10T16:16:07.749Z,46.45
2022-10-10T16:18:40.162Z,46.36
2022-10-10T16:21:10.748Z,46.30
2022-10-10T16:23:39.622Z,47.56
2022-10-10T16:26:09.657Z,47.47
2022-10-10T16:28:37.908Z,47.40
2022-10-10T16:31:07.719Z,48.02
2022-10-10T16:33:36.996Z,47.70
2022-10-10T16:36:09.628Z,47.92
2022-10-10T16:38:38.009Z,48.62
2022-10-10T16:41:10.766Z,48.85
2022-10-10T16:43:46.435Z,49.29
2022-10-10T16:46:16.562Z,49.44
2022-10-10T16:48:45.146Z,50.08
2022-10-10T16:51:15.136Z,49.44
2022-10-10T16:53:43.750Z,49.47
2022-10-10T16:56:13.358Z,50.05
2022-10-10T16:58:41.916Z,49.80
2022-10-10T17:01:11.533Z,50.43
2022-10-10T17:03:40.136Z,50.60
2022-10-10T17:06:16.712Z,51.47
2022-10-10T17:08:45.703Z,51.15
2022-10-10T17:11:18.279Z,51.61
2022-10-10T17:14:26.379Z,52.20
2022-10-10T17:19:43.527Z,52.73
2022-10-10T17:22:12.319Z,52.47
2022-10-10T17:24:40.595Z,52.11
2022-10-10T17:27:08.978Z,51.97
2022-10-10T17:29:37.971Z,52.91
2022-10-10T17:32:06.957Z,52.48
2022-10-10T17:35:15.690Z,52.63
2022-10-10T17:38:39.164Z,52.78
2022-10-10T17:41:08.872Z,52.93
2022-10-10T17:43:37.659Z,53.01
2022-10-10T17:46:33.263Z,53.87
2022-10-10T17:48:59.716Z,53.50
2022-10-10T17:51:28.299Z,54.11
2022-10-10T17:53:59.035Z,54.18
2022-10-10T17:56:27.926Z,53.39
2022-10-10T17:58:56.413Z,53.44
2022-10-10T18:01:24.616Z,53.83
2022-10-10T18:03:52.962Z,54.12
2022-10-10T18:06:22.475Z,54.20
2022-10-10T18:08:51.775Z,54.91
2022-10-10T18:11:21.890Z,54.77
2022-10-10T18:13:50.373Z,54.91
2022-10-10T18:16:20.070Z,55.62
2022-10-10T18:18:51.361Z,55.43
2022-10-10T18:21:21.557Z,55.91
2022-10-10T18:23:50.187Z,56.41
2022-10-10T18:26:20.054Z,56.03
2022-10-10T18:28:48.693Z,56.06
2022-10-10T18:31:21.625Z,57.74
2022-10-10T18:33:50.317Z,59.28
2022-10-10T18:36:21.252Z,58.30
2022-10-10T18:38:49.736Z,59.40
2022-10-10T18:41:37.060Z,60.66
2022-10-10T18:44:07.352Z,58.99
2022-10-10T18:46:35.767Z,59.66
2022-10-10T18:49:05.082Z,58.84
2022-10-10T18:51:33.855Z,58.59
2022-10-10T18:54:04.320Z,58.57
2022-10-10T18:56:33.393Z,59.10
2022-10-10T18:59:03.820Z,59.13
2022-10-10T19:01:35.504Z,58.78
2022-10-10T19:04:04.972Z,58.96
2022-10-10T19:06:33.143Z,58.88
2022-10-10T19:09:02.240Z,59.11
2022-10-10T19:11:31.615Z,59.46
2022-10-10T19:14:01.866Z,59.72
2022-10-10T19:16:30.861Z,59.89
2022-10-10T19:19:00.366Z,60.06
2022-10-10T19:21:30.084Z,61.09
2022-10-10T19:24:02.101Z,60.70
2022-10-10T19:26:33.618Z,61.11
2022-10-10T19:29:07.476Z,61.25
2022-10-10T19:31:36.907Z,61.11
2022-10-10T19:34:05.085Z,60.19
2022-10-10T19:36:36.142Z,60.23
2022-10-10T19:39:07.280Z,60.76
2022-10-10T19:41:35.852Z,60.75
2022-10-10T19:44:05.966Z,60.49
2022-10-10T19:46:37.243Z,60.53
2022-10-10T19:49:06.936Z,60.68
2022-10-10T19:51:35.311Z,60.51
2022-10-10T19:54:03.795Z,60.63
2022-10-10T19:56:32.378Z,60.52
2022-10-10T19:59:01.472Z,60.34
2022-10-10T20:01:30.691Z,60.56
2022-10-10T20:04:00.790Z,60.92
2022-10-10T20:06:29.478Z,61.55
2022-10-10T20:08:57.655Z,61.25
2022-10-10T20:11:26.749Z,61.08
2022-10-10T20:13:56.075Z,61.50
2022-10-10T20:16:25.657Z,61.24
2022-10-10T20:18:54.736Z,61.18
2022-10-10T20:21:24.776Z,61.76
2022-10-10T20:23:53.155Z,62.18
2022-10-10T20:26:22.967Z,62.18
2022-10-10T20:28:51.563Z,62.40
2022-10-10T20:31:21.615Z,62.73
2022-10-10T20:33:50.972Z,63.52
2022-10-10T20:36:20.093Z,63.29
2022-10-10T20:38:53.191Z,63.11
2022-10-10T20:41:22.745Z,62.82
2022-10-10T20:43:51.043Z,62.39
2022-10-10T20:46:19.833Z,62.64
2022-10-10T20:48:48.455Z,63.15
2022-10-10T20:51:16.797Z,64.69
2022-10-10T20:53:45.354Z,65.10
2022-10-10T20:56:13.734Z,65.44
2022-10-10T20:58:41.935Z,64.30
2022-10-10T21:01:21.192Z,64.43
2022-10-10T21:03:49.958Z,63.68
2022-10-10T21:06:26.116Z,63.87
2022-10-10T21:08:54.807Z,63.67
2022-10-10T21:11:24.011Z,63.12
2022-10-10T21:13:57.102Z,63.89
2022-10-10T21:16:51.998Z,62.51
2022-10-10T21:19:20.460Z,61.89
2022-10-10T21:21:49.269Z,62.50
2022-10-10T21:24:17.547Z,62.21
2022-10-10T21:26:46.232Z,62.07
2022-10-10T21:29:14.714Z,61.95
2022-10-10T21:31:43.196Z,62.01
2022-10-10T21:34:13.808Z,61.94
2022-10-10T21:36:42.208Z,61.97
2022-10-10T21:39:11.715Z,61.94
2022-10-10T21:41:40.510Z,62.32
2022-10-10T21:44:09.907Z,62.55
2022-10-10T21:46:38.388Z,63.09
2022-10-10T21:49:08.276Z,63.53
2022-10-10T21:51:38.629Z,63.60
2022-10-10T21:54:07.166Z,64.11
2022-10-10T21:56:35.920Z,64.06
2022-10-10T21:59:04.640Z,64.65
2022-10-10T22:01:33.475Z,64.27
2022-10-10T22:04:03.063Z,64.85
2022-10-10T22:06:31.877Z,65.09
2022-10-10T22:09:01.005Z,65.00
2022-10-10T22:11:30.659Z,65.06
2022-10-10T22:13:59.073Z,64.62
2022-10-10T22:16:27.389Z,64.78
2022-10-10T22:18:56.127Z,64.18
2022-10-10T22:21:29.996Z,64.49
2022-10-10T22:24:02.132Z,64.60
2022-10-10T22:26:30.894Z,64.26
2022-10-10T22:28:59.725Z,64.50
2022-10-10T22:31:29.585Z,64.32
2022-10-10T22:33:58.181Z,64.51
2022-10-10T22:36:26.567Z,64.59
2022-10-10T22:38:55.243Z,64.74
2022-10-10T22:41:23.834Z,64.68
2022-10-10T22:43:52.007Z,64.46
2022-10-10T22:46:20.695Z,64.36
2022-10-10T22:48:48.971Z,65.02
2022-10-10T22:51:17.764Z,65.08
2022-10-10T22:53:47.240Z,64.56
2022-10-10T22:56:17.741Z,65.29
2022-10-10T22:58:46.995Z,64.38
2022-10-10T23:01:17.074Z,64.04
2022-10-10T23:03:45.910Z,64.21
2022-10-10T23:06:14.796Z,64.41
2022-10-10T23:08:43.486Z,64.45
2022-10-10T23:11:12.375Z,64.59
2022-10-10T23:13:40.755Z,64.75
2022-10-10T23:16:09.335Z,64.90
2022-10-10T23:18:38.023Z,64.98
2022-10-10T23:21:06.151Z,65.26
2022-10-10T23:23:34.783Z,65.39
2022-10-10T23:26:07.739Z,65.03
2022-10-10T23:28:36.778Z,64.71
2022-10-10T23:31:06.868Z,64.93
2022-10-10T23:33:37.129Z,65.05
2022-10-10T23:36:08.157Z,65.40
2022-10-10T23:38:37.860Z,65.49
2022-10-10T23:41:06.240Z,65.46
2022-10-10T23:43:34.618Z,65.63
2022-10-10T23:46:03.528Z,65.56
2022-10-10T23:48:32.095Z,65.48
2022-10-10T23:51:00.680Z,65.81
2022-10-10T23:53:29.113Z,65.95
2022-10-10T23:55:57.238Z,65.78
2022-10-10T23:58:25.921Z,65.80
